Lewistown, MT

1:14 PM MST on February 13, 2016 (GMT -0700)
3/4 mile S of Lewistown | | Change Station
CLOSE
Current Station
Personal Weather Station
Location: Lewistown, Mt
Elevation: 4189 ft
Nearby Weather Stations

Elev 4189 ft 47.04 °N, 109.42 °W | Updated 16 seconds ago

Overcast
Overcast
41.1 °F
Feels Like 29 °F
N
33.0
Wind Variable Wind from SSW
Gusts 45.0 mph

Today
High -- | Low -- °F
--% Chance of Precip.
Yesterday
High -- | Low -- °F
Precip. -- in
Pressure 29.91 in
Visibility 10.0 miles
Clouds Mostly Cloudy 6500 ft
Mostly Cloudy 7500 ft
Overcast 10000 ft
Windchill 29 °F
Dew Point 28 °F
Humidity 60%
Rainfall in
Snow Depth Not available.
7:26 AM 5:38 PM
Waxing Crescent, 33% visible
METAR KLWT 131954Z AUTO 29027G37KT 10SM BKN065 BKN075 OVC100 06/M03 A2990 RMK AO2 PK WND 29037/1953 SLP129 T00611033
Pressure 29.91 in
Visibility 10.0 miles
Clouds Mostly Cloudy 6500 ft
Mostly Cloudy 7500 ft
Overcast 10000 ft
Windchill 29 °F
Dew Point 28 °F
Humidity 60%
Rainfall in
Snow Depth Not available.
7:26 AM 5:38 PM
Waxing Crescent, 33% visible
METAR KLWT 131954Z AUTO 29027G37KT 10SM BKN065 BKN075 OVC100 06/M03 A2990 RMK AO2 PK WND 29037/1953 SLP129 T00611033

10-Day Weather Forecast

Almanac

Astronomy

Feb. 13, 2016 Rise Set
Actual Time
Civil Twilight
Nautical Twilight
Astronomical Twilight
Moon
Length of Visible Light
Length of Day
Tomorrow will be .
, % of the Moon is Illuminated

Today's Extremes

State Highs State Lows

Community

WunderPhotos

Upload Photos

1,892,658 photos uploaded!

WunderBlog® & News

Nearby

Air Quality

  Air Quality AQ Index Pollutant
Not available.

Snow Depth

Station Depth Elevation

Earthquake Activity

City Distance Mag. Time & Date
Minimum magnitude displayed is 2.5.

Coastal Water Temperatures

Place Temperature

Stations

Nearby Weather Stations

Station Location Temp. Windchill Dew Point Humidity Wind Precip. Elev Updated Type
                   

Watches & Warnings

There are currently no watches in effect.